sensor_id;sensor_type;location;lat;lon;timestamp;pressure;altitude;pressure_sealevel;temperature;humidity
76973;BME280;65907;53.640;10.050;2023-07-31T00:00:36;100368.03;;;25.85;41.68
76973;BME280;65907;53.640;10.050;2023-07-31T00:03:01;100359.13;;;25.86;41.68
76973;BME280;65907;53.640;10.050;2023-07-31T00:05:27;100359.63;;;25.82;41.71
76973;BME280;65907;53.640;10.050;2023-07-31T00:07:52;100362.41;;;25.80;41.71
76973;BME280;65907;53.640;10.050;2023-07-31T00:10:19;100350.91;;;25.81;41.89
76973;BME280;65907;53.640;10.050;2023-07-31T00:12:44;100352.22;;;25.85;41.90
76973;BME280;65907;53.640;10.050;2023-07-31T00:15:10;100353.53;;;25.89;41.66
76973;BME280;65907;53.640;10.050;2023-07-31T00:17:35;100348.91;;;25.83;41.86
76973;BME280;65907;53.640;10.050;2023-07-31T00:20:01;100345.31;;;25.84;41.48
76973;BME280;65907;53.640;10.050;2023-07-31T00:22:26;100349.25;;;25.80;41.96
76973;BME280;65907;53.640;10.050;2023-07-31T00:24:54;100359.44;;;25.83;41.57
76973;BME280;65907;53.640;10.050;2023-07-31T00:27:19;100349.09;;;25.82;41.94
76973;BME280;65907;53.640;10.050;2023-07-31T00:29:44;100350.91;;;25.81;41.72
76973;BME280;65907;53.640;10.050;2023-07-31T00:32:12;100347.28;;;25.82;41.87
76973;BME280;65907;53.640;10.050;2023-07-31T00:34:37;100346.81;;;25.79;41.92
76973;BME280;65907;53.640;10.050;2023-07-31T00:37:02;100351.25;;;25.78;41.91
76973;BME280;65907;53.640;10.050;2023-07-31T00:39:29;100349.09;;;25.82;41.83
76973;BME280;65907;53.640;10.050;2023-07-31T00:41:54;100351.53;;;25.83;41.75
76973;BME280;65907;53.640;10.050;2023-07-31T00:44:20;100343.81;;;25.82;41.70
76973;BME280;65907;53.640;10.050;2023-07-31T00:46:45;100339.06;;;25.77;41.83
76973;BME280;65907;53.640;10.050;2023-07-31T00:49:10;100336.72;;;25.82;41.71
76973;BME280;65907;53.640;10.050;2023-07-31T00:51:36;100340.53;;;25.80;41.91
76973;BME280;65907;53.640;10.050;2023-07-31T00:54:01;100335.09;;;25.81;41.79
76973;BME280;65907;53.640;10.050;2023-07-31T00:56:27;100327.84;;;25.83;41.72
76973;BME280;65907;53.640;10.050;2023-07-31T00:58:58;100333.78;;;25.85;41.79
76973;BME280;65907;53.640;10.050;2023-07-31T01:01:23;100324.91;;;25.86;41.63
76973;BME280;65907;53.640;10.050;2023-07-31T01:03:49;100319.28;;;25.81;41.78
76973;BME280;65907;53.640;10.050;2023-07-31T01:08:54;100309.59;;;25.82;41.63
76973;BME280;65907;53.640;10.050;2023-07-31T01:11:42;100315.50;;;25.84;41.70
76973;BME280;65907;53.640;10.050;2023-07-31T01:14:08;100308.09;;;25.79;41.60
76973;BME280;65907;53.640;10.050;2023-07-31T01:16:33;100295.13;;;25.77;42.02
76973;BME280;65907;53.640;10.050;2023-07-31T01:18:58;100295.78;;;25.80;41.95
76973;BME280;65907;53.640;10.050;2023-07-31T01:26:28;100290.00;;;25.84;41.70
76973;BME280;65907;53.640;10.050;2023-07-31T01:29:09;100282.59;;;25.80;41.93
76973;BME280;65907;53.640;10.050;2023-07-31T01:31:36;100280.28;;;25.85;41.73
76973;BME280;65907;53.640;10.050;2023-07-31T01:34:01;100278.97;;;25.81;41.85
76973;BME280;65907;53.640;10.050;2023-07-31T01:36:27;100270.78;;;25.75;42.09
76973;BME280;65907;53.640;10.050;2023-07-31T01:38:57;100270.25;;;25.80;41.82
76973;BME280;65907;53.640;10.050;2023-07-31T01:41:22;100265.50;;;25.75;41.92
76973;BME280;65907;53.640;10.050;2023-07-31T01:43:48;100255.97;;;25.74;41.97
76973;BME280;65907;53.640;10.050;2023-07-31T01:46:13;100264.00;;;25.81;41.78
76973;BME280;65907;53.640;10.050;2023-07-31T01:48:38;100248.84;;;25.83;41.89
76973;BME280;65907;53.640;10.050;2023-07-31T01:51:03;100252.13;;;25.85;41.74
76973;BME280;65907;53.640;10.050;2023-07-31T01:53:29;100248.84;;;25.83;41.88
76973;BME280;65907;53.640;10.050;2023-07-31T01:55:55;100247.88;;;25.84;41.92
76973;BME280;65907;53.640;10.050;2023-07-31T01:58:20;100249.72;;;25.75;41.95
76973;BME280;65907;53.640;10.050;2023-07-31T02:00:45;100253.16;;;25.76;42.01
76973;BME280;65907;53.640;10.050;2023-07-31T02:03:13;100251.34;;;25.76;42.01
76973;BME280;65907;53.640;10.050;2023-07-31T02:05:45;100247.72;;;25.77;41.95
76973;BME280;65907;53.640;10.050;2023-07-31T02:08:16;100244.75;;;25.81;41.89
76973;BME280;65907;53.640;10.050;2023-07-31T02:10:41;100245.38;;;25.83;41.88
76973;BME280;65907;53.640;10.050;2023-07-31T02:13:09;100238.84;;;25.79;41.89
76973;BME280;65907;53.640;10.050;2023-07-31T02:15:34;100237.34;;;25.76;42.00
76973;BME280;65907;53.640;10.050;2023-07-31T02:17:59;100232.72;;;25.78;41.90
76973;BME280;65907;53.640;10.050;2023-07-31T02:20:27;100231.56;;;25.81;41.91
76973;BME280;65907;53.640;10.050;2023-07-31T02:22:52;100232.06;;;25.84;41.80
76973;BME280;65907;53.640;10.050;2023-07-31T02:25:18;100228.13;;;25.80;42.01
76973;BME280;65907;53.640;10.050;2023-07-31T02:27:43;100227.66;;;25.76;42.09
76973;BME280;65907;53.640;10.050;2023-07-31T02:30:08;100226.47;;;25.79;42.04
76973;BME280;65907;53.640;10.050;2023-07-31T02:32:36;100218.41;;;25.81;41.93
76973;BME280;65907;53.640;10.050;2023-07-31T02:35:01;100214.84;;;25.73;41.95
76973;BME280;65907;53.640;10.050;2023-07-31T02:37:26;100213.50;;;25.77;42.00
76973;BME280;65907;53.640;10.050;2023-07-31T02:39:56;100216.94;;;25.78;41.91
76973;BME280;65907;53.640;10.050;2023-07-31T02:42:21;100215.94;;;25.79;42.08
76973;BME280;65907;53.640;10.050;2023-07-31T02:44:46;100212.84;;;25.75;41.76
76973;BME280;65907;53.640;10.050;2023-07-31T02:47:11;100213.00;;;25.74;42.05
76973;BME280;65907;53.640;10.050;2023-07-31T02:49:36;100214.13;;;25.80;42.01
76973;BME280;65907;53.640;10.050;2023-07-31T02:52:02;100220.22;;;25.80;41.96
76973;BME280;65907;53.640;10.050;2023-07-31T02:54:27;100212.31;;;25.80;41.73
76973;BME280;65907;53.640;10.050;2023-07-31T02:56:52;100206.53;;;25.85;41.71
76973;BME280;65907;53.640;10.050;2023-07-31T02:59:17;100208.47;;;25.91;41.85
76973;BME280;65907;53.640;10.050;2023-07-31T03:01:43;100209.53;;;25.82;41.84
76973;BME280;65907;53.640;10.050;2023-07-31T03:04:08;100206.94;;;25.73;42.13
76973;BME280;65907;53.640;10.050;2023-07-31T03:06:36;100207.09;;;25.72;42.16
76973;BME280;65907;53.640;10.050;2023-07-31T03:09:02;100201.84;;;25.72;42.21
76973;BME280;65907;53.640;10.050;2023-07-31T03:11:27;100206.25;;;25.71;41.85
76973;BME280;65907;53.640;10.050;2023-07-31T03:13:52;100210.22;;;25.75;41.83
76973;BME280;65907;53.640;10.050;2023-07-31T03:16:20;100215.13;;;25.79;41.92
76973;BME280;65907;53.640;10.050;2023-07-31T03:18:45;100212.66;;;25.77;42.03
76973;BME280;65907;53.640;10.050;2023-07-31T03:21:10;100211.22;;;25.74;42.26
76973;BME280;65907;53.640;10.050;2023-07-31T03:23:35;100216.63;;;25.73;42.09
76973;BME280;65907;53.640;10.050;2023-07-31T03:26:01;100209.38;;;25.75;42.15
76973;BME280;65907;53.640;10.050;2023-07-31T03:28:29;100220.91;;;25.74;42.13
76973;BME280;65907;53.640;10.050;2023-07-31T03:30:54;100218.13;;;25.75;41.98
76973;BME280;65907;53.640;10.050;2023-07-31T03:33:20;100217.97;;;25.69;42.11
76973;BME280;65907;53.640;10.050;2023-07-31T03:35:45;100214.50;;;25.76;42.01
76973;BME280;65907;53.640;10.050;2023-07-31T03:38:11;100217.13;;;25.76;42.01
76973;BME280;65907;53.640;10.050;2023-07-31T03:40:36;100213.84;;;25.74;42.03
76973;BME280;65907;53.640;10.050;2023-07-31T03:43:01;100207.41;;;25.77;41.78
76973;BME280;65907;53.640;10.050;2023-07-31T03:45:26;100206.75;;;25.75;42.04
76973;BME280;65907;53.640;10.050;2023-07-31T03:47:52;100210.38;;;25.74;42.20
76973;BME280;65907;53.640;10.050;2023-07-31T03:50:17;100212.66;;;25.77;42.11
76973;BME280;65907;53.640;10.050;2023-07-31T03:52:42;100213.50;;;25.77;42.30
76973;BME280;65907;53.640;10.050;2023-07-31T03:55:07;100203.31;;;25.74;42.21
76973;BME280;65907;53.640;10.050;2023-07-31T03:57:33;100209.03;;;25.78;42.13
76973;BME280;65907;53.640;10.050;2023-07-31T03:59:58;100205.28;;;25.72;42.13
76973;BME280;65907;53.640;10.050;2023-07-31T04:02:23;100199.19;;;25.72;42.20
76973;BME280;65907;53.640;10.050;2023-07-31T04:04:48;100201.66;;;25.73;42.13
76973;BME280;65907;53.640;10.050;2023-07-31T04:07:14;100202.19;;;25.69;42.25
76973;BME280;65907;53.640;10.050;2023-07-31T04:09:39;100204.81;;;25.69;42.29
76973;BME280;65907;53.640;10.050;2023-07-31T04:12:04;100204.47;;;25.72;42.23
76973;BME280;65907;53.640;10.050;2023-07-31T04:14:29;100199.03;;;25.73;41.99
76973;BME280;65907;53.640;10.050;2023-07-31T04:16:55;100201.84;;;25.72;42.10
76973;BME280;65907;53.640;10.050;2023-07-31T04:19:20;100196.56;;;25.72;42.38
76973;BME280;65907;53.640;10.050;2023-07-31T04:21:45;100198.03;;;25.74;42.31
76973;BME280;65907;53.640;10.050;2023-07-31T04:24:10;100196.84;;;25.77;42.17
76973;BME280;65907;53.640;10.050;2023-07-31T04:26:35;100193.78;;;25.73;41.93
76973;BME280;65907;53.640;10.050;2023-07-31T04:29:01;100190.31;;;25.73;42.27
76973;BME280;65907;53.640;10.050;2023-07-31T04:31:26;100190.31;;;25.73;42.20
76973;BME280;65907;53.640;10.050;2023-07-31T04:33:51;100194.94;;;25.71;42.25
76973;BME280;65907;53.640;10.050;2023-07-31T04:36:16;100198.19;;;25.73;42.27
76973;BME280;65907;53.640;10.050;2023-07-31T04:38:42;100191.31;;;25.72;42.21
76973;BME280;65907;53.640;10.050;2023-07-31T04:41:07;100190.66;;;25.70;42.28
76973;BME280;65907;53.640;10.050;2023-07-31T04:43:32;100187.66;;;25.73;42.11
76973;BME280;65907;53.640;10.050;2023-07-31T04:46:00;100191.31;;;25.72;42.31
76973;BME280;65907;53.640;10.050;2023-07-31T04:48:25;100189.81;;;25.69;42.25
76973;BME280;65907;53.640;10.050;2023-07-31T04:50:50;100189.00;;;25.69;42.38
76973;BME280;65907;53.640;10.050;2023-07-31T04:53:16;100181.75;;;25.71;42.28
76973;BME280;65907;53.640;10.050;2023-07-31T04:55:41;100177.31;;;25.71;41.94
76973;BME280;65907;53.640;10.050;2023-07-31T04:58:09;100177.13;;;25.73;42.13
76973;BME280;65907;53.640;10.050;2023-07-31T05:00:34;100186.88;;;25.72;42.19
76973;BME280;65907;53.640;10.050;2023-07-31T05:02:59;100179.78;;;25.73;41.97
76973;BME280;65907;53.640;10.050;2023-07-31T05:05:24;100174.50;;;25.73;42.10
76973;BME280;65907;53.640;10.050;2023-07-31T05:07:52;100172.72;;;25.73;42.16
76973;BME280;65907;53.640;10.050;2023-07-31T05:10:17;100171.56;;;25.68;42.41
76973;BME280;65907;53.640;10.050;2023-07-31T05:12:42;100170.72;;;25.75;42.27
76973;BME280;65907;53.640;10.050;2023-07-31T05:15:08;100169.59;;;25.70;42.12
76973;BME280;65907;53.640;10.050;2023-07-31T05:17:33;100165.31;;;25.69;42.28
76973;BME280;65907;53.640;10.050;2023-07-31T05:19:59;100163.31;;;25.71;42.23
76973;BME280;65907;53.640;10.050;2023-07-31T05:22:24;100159.69;;;25.72;42.38
76973;BME280;65907;53.640;10.050;2023-07-31T05:24:49;100160.84;;;25.69;42.23
76973;BME280;65907;53.640;10.050;2023-07-31T05:27:15;100158.22;;;25.69;42.38
76973;BME280;65907;53.640;10.050;2023-07-31T05:29:43;100160.41;;;25.66;42.54
76973;BME280;65907;53.640;10.050;2023-07-31T05:32:08;100159.06;;;25.70;42.24
76973;BME280;65907;53.640;10.050;2023-07-31T05:34:33;100162.34;;;25.72;42.23
76973;BME280;65907;53.640;10.050;2023-07-31T05:36:59;100155.13;;;25.66;42.37
76973;BME280;65907;53.640;10.050;2023-07-31T05:39:24;100145.06;;;25.69;42.39
76973;BME280;65907;53.640;10.050;2023-07-31T05:41:51;100153.59;;;25.71;42.12
76973;BME280;65907;53.640;10.050;2023-07-31T05:44:16;100149.31;;;25.70;42.27
76973;BME280;65907;53.640;10.050;2023-07-31T05:46:42;100151.31;;;25.68;42.36
76973;BME280;65907;53.640;10.050;2023-07-31T05:49:07;100152.97;;;25.69;42.27
76973;BME280;65907;53.640;10.050;2023-07-31T05:51:35;100145.06;;;25.69;42.18
76973;BME280;65907;53.640;10.050;2023-07-31T05:54:00;100141.63;;;25.69;42.49
76973;BME280;65907;53.640;10.050;2023-07-31T05:56:25;100145.06;;;25.69;42.38
76973;BME280;65907;53.640;10.050;2023-07-31T05:58:52;100147.53;;;25.71;42.26
76973;BME280;65907;53.640;10.050;2023-07-31T06:01:18;100148.34;;;25.71;42.21
76973;BME280;65907;53.640;10.050;2023-07-31T06:03:43;100145.59;;;25.65;42.58
76973;BME280;65907;53.640;10.050;2023-07-31T06:06:08;100144.06;;;25.70;42.23
76973;BME280;65907;53.640;10.050;2023-07-31T06:08:34;100142.91;;;25.73;42.32
76973;BME280;65907;53.640;10.050;2023-07-31T06:10:59;100144.25;;;25.69;42.39
76973;BME280;65907;53.640;10.050;2023-07-31T06:13:24;100139.47;;;25.72;42.42
76973;BME280;65907;53.640;10.050;2023-07-31T06:15:49;100141.28;;;25.72;42.28
76973;BME280;65907;53.640;10.050;2023-07-31T06:18:15;100139.63;;;25.71;42.22
76973;BME280;65907;53.640;10.050;2023-07-31T06:20:41;100146.06;;;25.68;42.12
76973;BME280;65907;53.640;10.050;2023-07-31T06:23:06;100136.06;;;25.63;42.40
76973;BME280;65907;53.640;10.050;2023-07-31T06:25:32;100139.63;;;25.71;42.28
76973;BME280;65907;53.640;10.050;2023-07-31T06:27:58;100132.25;;;25.66;42.45
76973;BME280;65907;53.640;10.050;2023-07-31T06:30:23;100140.44;;;25.71;42.22
76973;BME280;65907;53.640;10.050;2023-07-31T06:32:48;100136.16;;;25.70;42.30
76973;BME280;65907;53.640;10.050;2023-07-31T06:35:13;100142.63;;;25.68;42.62
76973;BME280;65907;53.640;10.050;2023-07-31T06:37:38;100136.34;;;25.69;42.52
76973;BME280;65907;53.640;10.050;2023-07-31T06:40:09;100136.50;;;25.67;42.27
76973;BME280;65907;53.640;10.050;2023-07-31T06:42:34;100145.59;;;25.65;42.59
76973;BME280;65907;53.640;10.050;2023-07-31T06:45:00;100144.97;;;25.62;42.53
76973;BME280;65907;53.640;10.050;2023-07-31T06:47:26;100140.50;;;25.63;42.43
76973;BME280;65907;53.640;10.050;2023-07-31T06:49:51;100142.91;;;25.73;42.48
76973;BME280;65907;53.640;10.050;2023-07-31T06:52:16;100148.88;;;25.67;42.33
76973;BME280;65907;53.640;10.050;2023-07-31T06:54:41;100148.88;;;25.67;42.31
76973;BME280;65907;53.640;10.050;2023-07-31T06:57:07;100149.81;;;25.74;42.43
76973;BME280;65907;53.640;10.050;2023-07-31T06:59:33;100140.44;;;25.71;42.52
76973;BME280;65907;53.640;10.050;2023-07-31T07:01:58;100140.34;;;25.65;42.54
76973;BME280;65907;53.640;10.050;2023-07-31T07:04:23;100144.41;;;25.67;42.42
76973;BME280;65907;53.640;10.050;2023-07-31T07:06:48;100139.97;;;25.68;42.31
76973;BME280;65907;53.640;10.050;2023-07-31T07:09:13;100140.44;;;25.71;42.39
76973;BME280;65907;53.640;10.050;2023-07-31T07:11:41;100131.25;;;25.67;42.36
76973;BME280;65907;53.640;10.050;2023-07-31T07:14:06;100125.00;;;25.68;42.44
76973;BME280;65907;53.640;10.050;2023-07-31T07:16:31;100123.84;;;25.71;42.25
76973;BME280;65907;53.640;10.050;2023-07-31T07:18:57;100124.63;;;25.71;42.34
76973;BME280;65907;53.640;10.050;2023-07-31T07:21:22;100139.00;;;25.69;42.33
76973;BME280;65907;53.640;10.050;2023-07-31T07:23:47;100146.03;;;25.76;42.20
76973;BME280;65907;53.640;10.050;2023-07-31T07:26:13;100147.53;;;25.71;42.42
76973;BME280;65907;53.640;10.050;2023-07-31T07:28:38;100147.88;;;25.68;42.51
76973;BME280;65907;53.640;10.050;2023-07-31T07:31:03;100148.19;;;25.73;42.50
76973;BME280;65907;53.640;10.050;2023-07-31T07:33:28;100144.06;;;25.70;42.50
76973;BME280;65907;53.640;10.050;2023-07-31T07:35:54;100136.34;;;25.92;42.07
76973;BME280;65907;53.640;10.050;2023-07-31T07:38:19;100130.22;;;25.76;42.60
76973;BME280;65907;53.640;10.050;2023-07-31T07:40:46;100137.56;;;25.81;42.58
76973;BME280;65907;53.640;10.050;2023-07-31T07:43:15;100135.59;;;25.83;42.58
76973;BME280;65907;53.640;10.050;2023-07-31T07:45:40;100132.09;;;25.91;42.63
76973;BME280;65907;53.640;10.050;2023-07-31T07:48:05;100140.69;;;25.85;42.82
76973;BME280;65907;53.640;10.050;2023-07-31T07:50:31;100136.78;;;25.81;42.94
76973;BME280;65907;53.640;10.050;2023-07-31T07:52:57;100121.44;;;25.84;42.62
76973;BME280;65907;53.640;10.050;2023-07-31T07:55:22;100113.66;;;25.91;42.91
76973;BME280;65907;53.640;10.050;2023-07-31T07:57:47;100112.38;;;25.87;42.50
76973;BME280;65907;53.640;10.050;2023-07-31T08:00:15;100108.59;;;25.81;42.76
76973;BME280;65907;53.640;10.050;2023-07-31T08:02:40;100128.13;;;25.95;42.52
76973;BME280;65907;53.640;10.050;2023-07-31T08:05:06;100136.28;;;25.77;42.70
76973;BME280;65907;53.640;10.050;2023-07-31T08:07:33;100143.63;;;25.90;42.76
76973;BME280;65907;53.640;10.050;2023-07-31T08:09:58;100130.50;;;25.82;42.92
76973;BME280;65907;53.640;10.050;2023-07-31T08:12:24;100127.03;;;25.81;42.91
76973;BME280;65907;53.640;10.050;2023-07-31T08:14:49;100136.13;;;25.79;42.85
76973;BME280;65907;53.640;10.050;2023-07-31T08:17:14;100134.22;;;25.72;43.09
76973;BME280;65907;53.640;10.050;2023-07-31T08:19:39;100136.47;;;25.99;42.63
76973;BME280;65907;53.640;10.050;2023-07-31T08:22:05;100147.19;;;25.74;42.94
76973;BME280;65907;53.640;10.050;2023-07-31T08:24:30;100130.09;;;25.93;42.75
76973;BME280;65907;53.640;10.050;2023-07-31T08:26:55;100131.09;;;25.92;42.37
76973;BME280;65907;53.640;10.050;2023-07-31T08:29:21;100135.66;;;25.75;42.55
76973;BME280;65907;53.640;10.050;2023-07-31T08:31:46;100129.94;;;25.95;42.90
76973;BME280;65907;53.640;10.050;2023-07-31T08:34:12;100124.97;;;25.76;42.94
76973;BME280;65907;53.640;10.050;2023-07-31T08:36:39;100127.03;;;25.81;43.04
76973;BME280;65907;53.640;10.050;2023-07-31T08:39:04;100134.63;;;25.84;42.90
76973;BME280;65907;53.640;10.050;2023-07-31T08:41:30;100124.25;;;25.83;42.76
76973;BME280;65907;53.640;10.050;2023-07-31T08:43:55;100124.41;;;25.81;42.94
76973;BME280;65907;53.640;10.050;2023-07-31T08:46:24;100124.41;;;25.81;42.88
76973;BME280;65907;53.640;10.050;2023-07-31T08:48:52;100112.31;;;25.95;42.58
76973;BME280;65907;53.640;10.050;2023-07-31T08:51:18;100107.81;;;25.81;42.88
76973;BME280;65907;53.640;10.050;2023-07-31T08:53:44;100108.72;;;25.88;42.89
76973;BME280;65907;53.640;10.050;2023-07-31T08:56:10;100107.34;;;26.00;42.75
76973;BME280;65907;53.640;10.050;2023-07-31T08:58:36;100113.00;;;25.89;42.71
76973;BME280;65907;53.640;10.050;2023-07-31T09:01:03;100107.94;;;25.87;42.90
76973;BME280;65907;53.640;10.050;2023-07-31T09:03:28;100105.16;;;25.81;42.94
76973;BME280;65907;53.640;10.050;2023-07-31T09:05:58;100099.31;;;25.94;42.73
76973;BME280;65907;53.640;10.050;2023-07-31T09:08:24;100094.81;;;26.02;42.83
76973;BME280;65907;53.640;10.050;2023-07-31T09:10:53;100094.41;;;25.90;42.58
76973;BME280;65907;53.640;10.050;2023-07-31T09:13:20;100091.66;;;25.84;42.75
76973;BME280;65907;53.640;10.050;2023-07-31T09:15:48;100098.44;;;25.78;42.99
76973;BME280;65907;53.640;10.050;2023-07-31T09:18:13;100095.28;;;25.83;42.90
76973;BME280;65907;53.640;10.050;2023-07-31T09:20:43;100085.47;;;25.76;42.93
76973;BME280;65907;53.640;10.050;2023-07-31T09:23:09;100085.75;;;25.82;43.05
76973;BME280;65907;53.640;10.050;2023-07-31T09:25:35;100086.63;;;25.74;43.05
76973;BME280;65907;53.640;10.050;2023-07-31T09:28:10;100084.25;;;25.79;43.03
76973;BME280;65907;53.640;10.050;2023-07-31T09:30:51;100075.97;;;25.90;42.49
76973;BME280;65907;53.640;10.050;2023-07-31T09:33:20;100080.41;;;25.90;43.00
76973;BME280;65907;53.640;10.050;2023-07-31T09:35:46;100077.97;;;25.88;42.70
76973;BME280;65907;53.640;10.050;2023-07-31T09:38:13;100070.09;;;26.03;42.66
76973;BME280;65907;53.640;10.050;2023-07-31T09:43:05;100071.16;;;25.94;42.67
76973;BME280;65907;53.640;10.050;2023-07-31T09:45:33;100075.22;;;25.82;43.16
76973;BME280;65907;53.640;10.050;2023-07-31T09:48:01;100068.94;;;25.83;42.84
76973;BME280;65907;53.640;10.050;2023-07-31T09:50:27;100057.34;;;25.92;42.81
76973;BME280;65907;53.640;10.050;2023-07-31T09:52:52;100055.50;;;25.77;42.99
76973;BME280;65907;53.640;10.050;2023-07-31T09:55:18;100065.47;;;25.82;42.72
76973;BME280;65907;53.640;10.050;2023-07-31T09:57:45;100064.16;;;25.86;42.96
76973;BME280;65907;53.640;10.050;2023-07-31T10:00:12;100049.63;;;25.90;42.82
76973;BME280;65907;53.640;10.050;2023-07-31T10:02:37;100052.31;;;25.82;42.91
76973;BME280;65907;53.640;10.050;2023-07-31T10:05:06;100044.41;;;25.82;43.03
76973;BME280;65907;53.640;10.050;2023-07-31T10:07:33;100047.03;;;25.82;42.89
76973;BME280;65907;53.640;10.050;2023-07-31T10:10:00;100040.91;;;25.90;42.70
76973;BME280;65907;53.640;10.050;2023-07-31T10:12:26;100046.38;;;26.03;42.49
76973;BME280;65907;53.640;10.050;2023-07-31T10:14:53;100043.13;;;26.01;42.77
76973;BME280;65907;53.640;10.050;2023-07-31T10:17:19;100041.00;;;25.97;42.68
76973;BME280;65907;53.640;10.050;2023-07-31T10:19:45;100039.63;;;25.86;42.99
76973;BME280;65907;53.640;10.050;2023-07-31T10:22:10;100040.34;;;25.80;43.04
76973;BME280;65907;53.640;10.050;2023-07-31T10:24:36;100044.28;;;25.99;42.93
76973;BME280;65907;53.640;10.050;2023-07-31T10:27:02;100040.09;;;25.89;42.72
76973;BME280;65907;53.640;10.050;2023-07-31T10:29:28;100037.97;;;26.08;42.51
76973;BME280;65907;53.640;10.050;2023-07-31T10:31:54;100041.25;;;25.87;43.13
76973;BME280;65907;53.640;10.050;2023-07-31T10:34:23;100028.59;;;26.05;42.67
76973;BME280;65907;53.640;10.050;2023-07-31T10:37:07;100025.56;;;25.94;42.86
76973;BME280;65907;53.640;10.050;2023-07-31T10:39:39;100018.75;;;25.84;42.91
76973;BME280;65907;53.640;10.050;2023-07-31T10:42:13;100020.25;;;25.79;43.09
76973;BME280;65907;53.640;10.050;2023-07-31T10:44:43;100020.91;;;25.81;43.17
76973;BME280;65907;53.640;10.050;2023-07-31T10:47:08;100021.44;;;25.76;43.00
76973;BME280;65907;53.640;10.050;2023-07-31T10:49:36;100019.25;;;25.80;43.05
76973;BME280;65907;53.640;10.050;2023-07-31T10:52:10;100009.00;;;25.85;42.90
76973;BME280;65907;53.640;10.050;2023-07-31T10:54:35;100014.63;;;25.82;42.93
76973;BME280;65907;53.640;10.050;2023-07-31T10:57:08;100019.03;;;25.89;42.86
76973;BME280;65907;53.640;10.050;2023-07-31T10:59:43;100015.16;;;25.77;43.04
76973;BME280;65907;53.640;10.050;2023-07-31T11:02:08;100013.66;;;25.98;42.85
76973;BME280;65907;53.640;10.050;2023-07-31T11:05:05;100009.31;;;26.05;42.75
76973;BME280;65907;53.640;10.050;2023-07-31T11:07:45;100006.75;;;25.97;42.73
76973;BME280;65907;53.640;10.050;2023-07-31T11:10:11;99998.88;;;25.97;42.84
76973;BME280;65907;53.640;10.050;2023-07-31T11:12:36;100001.69;;;25.95;42.67
76973;BME280;65907;53.640;10.050;2023-07-31T11:15:02;100001.84;;;25.94;42.84
76973;BME280;65907;53.640;10.050;2023-07-31T11:17:28;100000.31;;;25.84;43.11
76973;BME280;65907;53.640;10.050;2023-07-31T11:19:53;99999.38;;;25.77;43.18
76973;BME280;65907;53.640;10.050;2023-07-31T11:22:21;100002.19;;;25.75;43.17
76973;BME280;65907;53.640;10.050;2023-07-31T11:24:47;99998.75;;;25.90;42.88
76973;BME280;65907;53.640;10.050;2023-07-31T11:27:12;100003.13;;;25.98;42.85
76973;BME280;65907;53.640;10.050;2023-07-31T11:29:37;99992.94;;;25.80;42.94
76973;BME280;65907;53.640;10.050;2023-07-31T11:32:02;99994.31;;;25.90;42.78
76973;BME280;65907;53.640;10.050;2023-07-31T11:34:28;99992.75;;;25.81;42.86
76973;BME280;65907;53.640;10.050;2023-07-31T11:36:56;99986.78;;;25.87;42.91
76973;BME280;65907;53.640;10.050;2023-07-31T11:39:21;99985.56;;;25.75;43.24
76973;BME280;65907;53.640;10.050;2023-07-31T11:41:47;99987.47;;;25.81;43.10
76973;BME280;65907;53.640;10.050;2023-07-31T11:44:12;99978.69;;;25.89;42.98
76973;BME280;65907;53.640;10.050;2023-07-31T11:46:37;99989.69;;;25.92;42.73
76973;BME280;65907;53.640;10.050;2023-07-31T11:49:02;99988.06;;;25.91;42.74
76973;BME280;65907;53.640;10.050;2023-07-31T11:51:30;99979.34;;;26.06;42.73
76973;BME280;65907;53.640;10.050;2023-07-31T11:53:57;99972.34;;;25.98;42.79
76973;BME280;65907;53.640;10.050;2023-07-31T11:56:23;99984.16;;;25.87;43.01
76973;BME280;65907;53.640;10.050;2023-07-31T11:58:49;99971.78;;;26.03;42.72
76973;BME280;65907;53.640;10.050;2023-07-31T12:01:18;99970.69;;;25.82;43.04
76973;BME280;65907;53.640;10.050;2023-07-31T12:03:45;99971.66;;;25.81;42.98
76973;BME280;65907;53.640;10.050;2023-07-31T12:06:11;99970.91;;;26.11;42.51
76973;BME280;65907;53.640;10.050;2023-07-31T12:08:36;99970.16;;;26.02;42.71
76973;BME280;65907;53.640;10.050;2023-07-31T12:11:02;99966.25;;;25.98;42.58
76973;BME280;65907;53.640;10.050;2023-07-31T12:13:28;99974.25;;;25.89;42.90
76973;BME280;65907;53.640;10.050;2023-07-31T12:15:56;99978.69;;;25.89;42.99
76973;BME280;65907;53.640;10.050;2023-07-31T12:18:22;99987.31;;;25.98;42.85
76973;BME280;65907;53.640;10.050;2023-07-31T12:20:59;99970.63;;;25.90;42.97
76973;BME280;65907;53.640;10.050;2023-07-31T12:23:29;99969.75;;;25.75;43.38
76973;BME280;65907;53.640;10.050;2023-07-31T12:28:27;99958.34;;;25.98;42.88
76973;BME280;65907;53.640;10.050;2023-07-31T12:30:56;99959.09;;;25.91;43.05
76973;BME280;65907;53.640;10.050;2023-07-31T12:33:21;99956.34;;;26.00;43.00
76973;BME280;65907;53.640;10.050;2023-07-31T12:35:46;99949.34;;;25.92;43.10
76973;BME280;65907;53.640;10.050;2023-07-31T12:38:12;99952.63;;;25.94;42.90
76973;BME280;65907;53.640;10.050;2023-07-31T12:40:40;99955.09;;;25.96;42.80
76973;BME280;65907;53.640;10.050;2023-07-31T12:43:09;99957.56;;;25.97;42.84
76973;BME280;65907;53.640;10.050;2023-07-31T12:45:34;99951.91;;;26.15;42.44
76973;BME280;65907;53.640;10.050;2023-07-31T12:48:00;99960.44;;;25.87;43.04